Time;durP1;ratioP1;P1;durP2;ratioP2;P2;SDS_P1;SDS_P2;PMS_P1;PMS_P2;Temp;Humidity;BMP_temperature;BMP_pressure;BME280_temperature;BME280_humidity;BME280_pressure;Samples;Min_cycle;Max_cycle;Signal;HPM_P1;HPM_P2
2022/10/16 00:02:38;;;;;;;92.50;54.13;;;;;;;23.57;73.43;98781.91;4866658;29;20064;-70
2022/10/16 00:05:32;;;;;;;98.20;53.70;;;;;;;23.65;73.58;98783.16;4882143;29;20045;-69
2022/10/16 00:08:17;;;;;;;114.45;56.67;;;;;;;23.61;73.02;98790.34;4890693;29;20056;-70
2022/10/16 00:11:15;;;;;;;94.20;56.60;;;;;;;23.63;72.72;98788.91;4882626;29;20925;-69
2022/10/16 00:14:03;;;;;;;102.88;55.13;;;;;;;23.49;73.42;98788.06;4883376;29;20048;-69
2022/10/16 00:16:52;;;;;;;98.95;54.92;;;;;;;23.60;73.13;98791.47;4881710;29;20075;-71
2022/10/16 00:19:41;;;;;;;107.07;57.25;;;;;;;23.55;73.25;98792.34;4882967;29;20052;-70
2022/10/16 00:22:23;;;;;;;106.30;57.80;;;;;;;23.53;72.77;98791.03;4886991;29;20052;-70
2022/10/16 00:25:12;;;;;;;96.95;56.20;;;;;;;23.61;72.94;98791.16;4882956;29;20056;-69
2022/10/16 00:28:00;;;;;;;104.15;59.50;;;;;;;23.58;72.67;98791.75;4884956;28;20045;-70
2022/10/16 00:30:49;;;;;;;110.25;61.90;;;;;;;23.60;72.91;98805.16;4861711;29;20041;-70
2022/10/16 00:33:38;;;;;;;114.22;61.65;;;;;;;23.55;72.17;98797.81;4869098;29;20398;-70
2022/10/16 00:36:23;;;;;;;112.82;60.03;;;;;;;23.50;72.56;98805.31;4864655;29;20057;-69
2022/10/16 00:39:12;;;;;;;99.40;57.40;;;;;;;23.40;73.34;98811.75;4866134;29;20056;-68
2022/10/16 00:41:54;;;;;;;99.85;58.20;;;;;;;23.56;73.45;98813.16;4862788;29;20112;-70
2022/10/16 00:45:00;;;;;;;103.50;58.20;;;;;;;23.48;73.03;98816.53;4849322;29;20056;-70
2022/10/16 00:47:51;;;;;;;105.10;59.08;;;;;;;23.44;73.03;98818.25;4868079;29;20105;-71
2022/10/16 00:50:43;;;;;;;106.65;59.50;;;;;;;23.50;73.52;98814.31;4847551;29;20061;-69
2022/10/16 00:53:27;;;;;;;106.75;59.35;;;;;;;23.54;73.04;98818.13;4863486;29;20057;-69
2022/10/16 00:56:16;;;;;;;109.38;61.78;;;;;;;23.49;73.24;98825.59;4870805;29;20060;-70
2022/10/16 00:58:59;;;;;;;109.30;61.03;;;;;;;23.53;73.37;98837.59;4864086;29;20073;-69
2022/10/16 01:01:48;;;;;;;108.88;60.28;;;;;;;23.52;73.25;98836.78;4864928;29;20084;-71
2022/10/16 01:04:37;;;;;;;110.78;61.30;;;;;;;23.56;73.32;98835.06;4862577;29;20049;-69
2022/10/16 01:07:44;;;;;;;113.20;61.35;;;;;;;23.51;73.63;98832.41;4866338;29;20073;-69
2022/10/16 01:10:39;;;;;;;108.63;61.65;;;;;;;23.45;73.82;98839.88;4863456;29;20481;-70
2022/10/16 01:13:38;;;;;;;104.28;58.80;;;;;;;23.47;73.55;98844.25;4863724;29;20072;-69
2022/10/16 01:16:40;;;;;;;109.43;58.65;;;;;;;23.53;73.48;98843.88;4864071;29;20419;-71
2022/10/16 01:20:04;;;;;;;104.82;61.45;;;;;;;23.59;73.43;98842.69;4846107;29;20135;-69
2022/10/16 01:23:18;;;;;;;110.60;58.88;;;;;;;23.55;73.72;98855.34;4862697;29;20060;-70
2022/10/16 01:26:32;;;;;;;111.60;60.80;;;;;;;23.55;73.48;98854.53;4863807;29;20050;-69
2022/10/16 01:29:30;;;;;;;111.65;61.42;;;;;;;23.60;73.66;98854.47;4881378;29;20053;-69
2022/10/16 01:32:40;;;;;;;110.63;61.22;;;;;;;23.56;73.70;98858.91;4880029;29;20080;-69
2022/10/16 01:35:36;;;;;;;94.22;57.35;;;;;;;23.60;73.68;98860.75;4881460;29;20053;-70
2022/10/16 01:38:33;;;;;;;102.20;61.72;;;;;;;23.59;73.77;98861.84;4870140;29;20839;-70
2022/10/16 01:41:33;;;;;;;102.50;60.47;;;;;;;23.67;73.95;98865.06;4884306;29;20107;-70
2022/10/16 01:44:22;;;;;;;102.50;61.33;;;;;;;23.72;73.53;98875.94;4871627;29;20064;-69
2022/10/16 01:47:15;;;;;;;104.28;61.30;;;;;;;23.69;73.65;98873.78;4893990;29;20048;-69
2022/10/16 01:49:59;;;;;;;102.15;61.25;;;;;;;23.86;73.37;98879.59;4885495;29;20052;-69
2022/10/16 01:52:53;;;;;;;109.18;61.55;;;;;;;23.98;73.67;98877.22;4886654;29;20568;-69
2022/10/16 01:55:43;;;;;;;102.93;61.08;;;;;;;24.01;73.29;98884.81;4872064;29;20057;-71
2022/10/16 01:58:34;;;;;;;105.18;60.20;;;;;;;24.04;73.23;98881.50;4885658;29;20059;-69
2022/10/16 02:01:19;;;;;;;115.13;63.13;;;;;;;24.11;73.30;98885.78;4885723;29;20048;-70
2022/10/16 02:04:14;;;;;;;105.72;62.30;;;;;;;24.19;72.91;98888.66;4884128;29;20109;-69
2022/10/16 02:07:03;;;;;;;98.00;61.45;;;;;;;24.29;72.78;98895.91;4886661;29;20076;-69
2022/10/16 02:09:52;;;;;;;105.63;63.45;;;;;;;24.28;72.70;98898.94;4885459;29;20048;-69
2022/10/16 02:12:52;;;;;;;101.07;59.45;;;;;;;24.52;72.29;98896.91;4879244;29;20056;-70
2022/10/16 02:15:27;;;;;;;104.32;62.97;;;;;;;24.55;72.55;98904.53;4896232;29;20388;-69
2022/10/16 02:18:23;;;;;;;104.97;62.22;;;;;;;24.67;72.43;98904.06;4895722;29;20444;-69
2022/10/16 02:21:26;;;;;;;104.63;61.58;;;;;;;24.79;72.43;98906.31;4896660;29;20148;-70
2022/10/16 02:24:20;;;;;;;103.18;59.30;;;;;;;24.88;71.64;98920.13;4896175;29;20080;-68
2022/10/16 02:27:10;;;;;;;110.60;62.70;;;;;;;25.00;71.50;98925.94;4896587;29;20176;-69
2022/10/16 02:30:22;;;;;;;97.78;61.03;;;;;;;25.13;71.50;98927.88;4896757;29;20056;-69
2022/10/16 02:33:00;;;;;;;106.88;60.58;;;;;;;25.24;71.00;98938.69;4896816;29;20460;-69
2022/10/16 02:35:51;;;;;;;104.07;61.33;;;;;;;25.39;70.84;98941.13;4896260;29;20048;-69
2022/10/16 02:38:35;;;;;;;101.43;61.58;;;;;;;25.45;71.20;98942.66;4909361;29;20103;-69
2022/10/16 02:41:24;;;;;;;90.68;59.67;;;;;;;25.65;70.39;98952.38;4895662;29;20083;-69
2022/10/16 02:44:07;;;;;;;105.05;59.58;;;;;;;25.75;70.32;98954.09;4877695;29;20751;-69
2022/10/16 02:46:56;;;;;;;101.63;61.30;;;;;;;25.88;69.46;98952.44;4891673;29;20399;-68
2022/10/16 02:49:45;;;;;;;100.75;62.38;;;;;;;26.05;69.79;98962.81;4877579;29;20053;-69
2022/10/16 02:52:27;;;;;;;105.43;63.33;;;;;;;26.02;70.85;98966.19;4861476;29;20056;-70
2022/10/16 02:55:16;;;;;;;109.30;64.43;;;;;;;26.22;69.01;98962.97;4882578;29;20056;-71
2022/10/16 02:57:58;;;;;;;116.85;68.95;;;;;;;26.34;69.31;98971.47;4877213;29;20131;-70
2022/10/16 03:00:47;;;;;;;116.78;70.53;;;;;;;26.33;67.85;98964.34;4894435;29;20492;-70
2022/10/16 03:03:36;;;;;;;122.75;70.80;;;;;;;26.46;68.82;98967.34;4893504;29;20064;-69
2022/10/16 03:06:18;;;;;;;127.93;74.53;;;;;;;26.55;66.82;98976.47;4893067;29;20064;-69
2022/10/16 03:09:07;;;;;;;130.02;78.43;;;;;;;26.74;66.39;98979.06;4893435;29;20052;-69
2022/10/16 03:11:50;;;;;;;133.52;82.43;;;;;;;26.85;66.60;98974.09;4877759;29;20771;-69
2022/10/16 03:14:45;;;;;;;140.48;87.13;;;;;;;26.97;66.24;98981.78;4893099;29;20094;-69
2022/10/16 03:17:20;;;;;;;165.45;93.15;;;;;;;26.95;66.48;98980.13;4892794;29;20052;-70
2022/10/16 03:20:16;;;;;;;169.02;99.60;;;;;;;27.04;64.01;98982.94;4875928;29;20155;-71
2022/10/16 03:22:51;;;;;;;200.20;105.30;;;;;;;27.10;62.94;98986.38;4894346;29;20437;-69
2022/10/16 03:25:47;;;;;;;188.77;106.18;;;;;;;27.31;61.43;98986.66;4891811;29;20532;-69
2022/10/16 03:28:29;;;;;;;212.00;111.13;;;;;;;27.47;57.32;98990.59;4870985;29;20110;-69
2022/10/16 03:31:18;;;;;;;191.07;106.35;;;;;;;27.68;59.27;98987.25;4874171;29;20248;-69
2022/10/16 03:34:00;;;;;;;185.98;109.03;;;;;;;27.74;60.84;98994.22;4869786;29;20067;-69
2022/10/16 03:36:49;;;;;;;191.82;106.78;;;;;;;27.85;60.00;99000.25;4874037;29;20065;-69
2022/10/16 03:39:31;;;;;;;190.38;107.50;;;;;;;28.04;60.95;99000.00;4874100;29;20179;-70
2022/10/16 03:42:20;;;;;;;197.82;110.32;;;;;;;28.14;59.56;99002.44;4873999;29;20057;-70
2022/10/16 03:45:11;;;;;;;193.02;109.57;;;;;;;28.20;59.16;99006.66;4881954;29;20067;-69
2022/10/16 03:48:00;;;;;;;196.70;108.68;;;;;;;28.42;57.88;99013.16;4891735;29;20569;-70
2022/10/16 03:50:42;;;;;;;181.88;109.90;;;;;;;28.55;58.74;99016.91;4892422;29;20421;-69
2022/10/16 03:53:32;;;;;;;186.30;106.75;;;;;;;28.98;57.01;99014.06;4892672;29;20131;-69
2022/10/16 03:56:14;;;;;;;188.35;110.40;;;;;;;29.33;55.65;99019.53;4874902;29;20084;-71
2022/10/16 03:59:03;;;;;;;194.80;109.85;;;;;;;29.38;54.46;99015.75;4874513;29;20063;-70
2022/10/16 04:01:45;;;;;;;191.93;109.60;;;;;;;29.82;52.69;99025.47;4873610;29;20068;-69
2022/10/16 04:04:34;;;;;;;191.40;111.60;;;;;;;29.94;52.56;99021.19;4871085;29;20053;-70
2022/10/16 04:07:23;;;;;;;195.02;112.15;;;;;;;30.13;51.08;99029.03;4873515;29;20089;-72
2022/10/16 04:10:13;;;;;;;195.00;114.03;;;;;;;30.35;51.46;99025.97;4871822;29;20068;-69
2022/10/16 04:13:02;;;;;;;197.10;115.10;;;;;;;30.49;52.26;99030.41;4857125;29;20081;-70
2022/10/16 04:15:52;;;;;;;215.48;117.55;;;;;;;30.84;49.86;99025.34;4873071;29;20049;-69
2022/10/16 04:18:35;;;;;;;213.35;120.53;;;;;;;31.06;50.45;99023.34;4856853;29;20053;-75
2022/10/16 04:21:24;;;;;;;205.38;117.18;;;;;;;31.52;48.50;99026.91;4872944;29;20505;-72
2022/10/16 04:24:07;;;;;;;211.20;119.53;;;;;;;31.90;48.50;99031.28;4873481;29;20575;-71
2022/10/16 04:26:56;;;;;;;200.15;116.43;;;;;;;31.98;48.38;99027.56;4873370;29;20057;-71
2022/10/16 04:29:39;;;;;;;203.98;115.10;;;;;;;31.94;44.98;99023.88;4889358;29;20564;-73
2022/10/16 04:32:28;;;;;;;201.82;112.10;;;;;;;32.25;45.84;99028.81;4891576;29;20060;-69
2022/10/16 04:35:10;;;;;;;197.25;112.70;;;;;;;32.33;47.90;99032.59;4891464;29;20056;-68
2022/10/16 04:37:59;;;;;;;183.57;107.70;;;;;;;32.59;47.70;99023.88;4874315;29;20059;-70
2022/10/16 04:40:42;;;;;;;184.10;108.63;;;;;;;32.60;46.95;99025.50;4887912;29;20441;-70
2022/10/16 04:43:32;;;;;;;187.30;102.47;;;;;;;32.51;42.83;99017.28;4908421;29;20052;-68
2022/10/16 04:46:14;;;;;;;183.60;101.22;;;;;;;32.68;48.16;99023.72;4891167;29;20057;-70
2022/10/16 04:49:03;;;;;;;176.88;93.78;;;;;;;33.08;43.38;99018.06;4884335;29;20053;-70
2022/10/16 04:51:52;;;;;;;169.07;95.20;;;;;;;32.89;45.57;99018.75;4868381;29;20206;-70
2022/10/16 04:54:41;;;;;;;169.30;93.18;;;;;;;33.00;43.60;99015.44;4871635;29;20052;-71
2022/10/16 04:57:30;;;;;;;169.02;90.50;;;;;;;32.88;43.48;99022.69;4884747;29;20044;-72
2022/10/16 05:00:19;;;;;;;167.73;87.07;;;;;;;32.49;41.36;99025.16;4886853;29;20116;-71
2022/10/16 05:03:05;;;;;;;174.65;89.20;;;;;;;32.79;43.95;99019.28;4887888;29;20135;-72
2022/10/16 05:05:56;;;;;;;166.73;84.10;;;;;;;32.69;42.41;99017.00;4888800;29;20052;-73
2022/10/16 05:08:38;;;;;;;145.35;80.53;;;;;;;33.04;44.54;99025.50;4890906;29;20048;-71
2022/10/16 05:11:27;;;;;;;150.88;81.38;;;;;;;33.19;46.40;99018.38;4890827;29;20504;-73
2022/10/16 05:14:09;;;;;;;158.48;76.25;;;;;;;33.20;43.79;99011.63;4890849;29;20056;-70
2022/10/16 05:16:58;;;;;;;141.23;78.68;;;;;;;33.41;42.40;99007.78;4873913;29;20112;-71
2022/10/16 05:19:47;;;;;;;138.70;74.00;;;;;;;33.44;41.91;99007.03;4890929;29;20060;-71
2022/10/16 05:22:36;;;;;;;133.65;71.03;;;;;;;33.65;40.06;99004.81;4891596;29;20441;-71
2022/10/16 05:25:31;;;;;;;127.70;66.07;;;;;;;33.60;41.31;99005.06;4895319;29;20060;-73
2022/10/16 05:28:13;;;;;;;115.43;60.42;;;;;;;33.37;39.44;99012.44;4898449;29;20075;-73
2022/10/16 05:31:03;;;;;;;110.35;57.90;;;;;;;33.54;39.08;99012.88;4890738;29;20055;-72
2022/10/16 05:33:44;;;;;;;;;;;;;;;33.45;37.76;99014.22;4890803;29;20048;-73
2022/10/16 05:36:33;;;;;;;82.20;40.70;;;;;;;32.83;35.03;99003.50;4890563;29;19959;-72
2022/10/16 05:39:16;;;;;;;72.97;37.08;;;;;;;33.45;35.89;99003.91;4890758;29;20119;-71
2022/10/16 05:42:05;;;;;;;67.60;34.42;;;;;;;33.94;36.31;99003.50;4874441;29;20057;-70
2022/10/16 05:44:47;;;;;;;72.53;35.58;;;;;;;33.84;35.38;98997.66;4893519;29;20091;-71
2022/10/16 05:47:36;;;;;;;76.38;38.95;;;;;;;33.50;34.78;98997.28;4873386;29;20059;-74
2022/10/16 05:50:18;;;;;;;70.00;36.50;;;;;;;33.97;38.15;98990.81;4873574;29;20045;-71
2022/10/16 05:53:07;;;;;;;63.67;33.55;;;;;;;34.13;40.62;98994.34;4871368;29;20064;-74
2022/10/16 05:55:53;;;;;;;65.10;33.67;;;;;;;34.26;37.63;98989.50;4884025;29;20052;-75
2022/10/16 05:58:47;;;;;;;79.15;34.25;;;;;;;34.14;34.44;98987.59;4889643;29;20064;-71
2022/10/16 06:01:29;;;;;;;61.33;33.63;;;;;;;33.70;34.71;98987.81;4883295;29;20049;-70
2022/10/16 06:04:18;;;;;;;60.58;32.80;;;;;;;34.01;39.43;98980.53;4871140;29;20057;-73
2022/10/16 06:07:13;;;;;;;73.63;33.25;;;;;;;33.93;37.36;98984.34;4876794;29;20129;-73
2022/10/16 06:09:49;;;;;;;74.57;35.03;;;;;;;34.20;41.44;98987.34;4892378;29;20052;-71
2022/10/16 06:12:45;;;;;;;59.70;29.92;;;;;;;34.50;37.16;98985.56;4871708;29;20067;-72
2022/10/16 06:15:20;;;;;;;61.53;28.52;;;;;;;34.28;35.70;98986.31;4871682;29;20421;-72
2022/10/16 06:18:10;;;;;;;61.30;29.40;;;;;;;34.16;36.37;98978.13;4873668;29;20061;-69
2022/10/16 06:21:00;;;;;;;52.03;27.73;;;;;;;34.32;32.06;98973.28;4871686;29;20059;-71
2022/10/16 06:23:55;;;;;;;66.40;28.42;;;;;;;34.57;33.98;98968.19;4884114;29;20124;-73
2022/10/16 06:26:31;;;;;;;55.10;26.05;;;;;;;34.46;35.84;98970.78;4871927;29;20053;-73
2022/10/16 06:29:26;;;;;;;;;;;;;;;34.49;34.67;98960.84;4894344;29;20151;-73
2022/10/16 06:32:15;;;;;;;49.15;23.52;;;;;;;34.36;32.08;98957.44;4893249;29;19927;-75
2022/10/16 06:35:04;;;;;;;42.95;22.08;;;;;;;34.61;32.21;98952.34;4894243;29;20139;-73
2022/10/16 06:37:46;;;;;;;44.95;23.55;;;;;;;34.61;34.20;98945.97;4893362;29;20044;-73
2022/10/16 06:40:35;;;;;;;49.10;21.95;;;;;;;34.61;32.39;98948.75;4876900;29;20507;-73
2022/10/16 06:43:17;;;;;;;44.78;20.80;;;;;;;34.57;31.08;98942.28;4892019;29;20452;-73
2022/10/16 06:46:09;;;;;;;38.83;20.42;;;;;;;34.40;37.44;98941.59;4895330;29;20068;-72
2022/10/16 06:49:06;;;;;;;44.17;20.40;;;;;;;34.60;34.06;98927.63;4879220;29;20045;-73
2022/10/16 06:51:41;;;;;;;44.15;20.58;;;;;;;34.75;32.95;98929.53;4892756;29;20062;-74
2022/10/16 06:54:31;;;;;;;43.30;20.08;;;;;;;34.51;30.02;98925.88;4893047;29;20076;-74
2022/10/16 06:57:22;;;;;;;41.88;19.13;;;;;;;34.28;31.64;98916.66;4890719;29;20053;-74
2022/10/16 07:00:11;;;;;;;43.40;20.27;;;;;;;34.44;31.50;98919.38;4892507;29;20124;-73
2022/10/16 07:02:54;;;;;;;41.80;20.35;;;;;;;34.16;31.24;98914.84;4892821;29;20087;-75
2022/10/16 07:05:50;;;;;;;44.67;21.48;;;;;;;34.28;34.86;98911.09;4885159;29;20062;-74
2022/10/16 07:08:25;;;;;;;41.80;22.90;;;;;;;34.06;31.03;98912.63;4880152;29;20052;-73
2022/10/16 07:11:20;;;;;;;50.05;23.52;;;;;;;33.97;32.92;98904.50;4870740;29;20065;-74
2022/10/16 07:14:10;;;;;;;51.00;21.88;;;;;;;34.34;32.10;98904.06;4903375;29;20067;-77
2022/10/16 07:16:53;;;;;;;43.58;20.60;;;;;;;34.19;33.29;98896.63;4856551;29;20096;-77
2022/10/16 07:19:42;;;;;;;42.60;18.95;;;;;;;34.11;37.27;98888.09;4886853;29;20049;-73
2022/10/16 07:22:24;;;;;;;37.80;17.20;;;;;;;34.02;33.34;98872.78;4865149;29;20116;-75
2022/10/16 07:25:14;;;;;;;42.22;17.67;;;;;;;34.24;33.99;98874.84;4885388;29;20056;-75
2022/10/16 07:28:03;;;;;;;39.05;17.15;;;;;;;34.58;32.24;98868.66;4880336;29;20639;-72
2022/10/16 07:30:52;;;;;;;35.97;15.63;;;;;;;34.35;34.37;98866.66;4859301;29;20077;-73
2022/10/16 07:33:34;;;;;;;32.90;15.27;;;;;;;34.42;31.26;98861.22;4855307;29;20452;-73
2022/10/16 07:36:23;;;;;;;37.95;14.80;;;;;;;34.60;32.24;98855.97;4858330;29;20729;-73
2022/10/16 07:39:05;;;;;;;35.83;15.50;;;;;;;34.26;32.07;98853.00;4863440;29;20711;-72
2022/10/16 07:42:00;;;;;;;33.78;14.93;;;;;;;34.30;31.07;98853.06;4855936;29;20049;-73
2022/10/16 07:44:36;;;;;;;27.88;14.57;;;;;;;33.96;31.02;98852.78;4856651;29;20053;-72
2022/10/16 07:47:25;;;;;;;31.20;13.98;;;;;;;34.19;33.16;98843.69;4857440;29;20056;-72
2022/10/16 07:50:08;;;;;;;;;;;;;;;34.35;32.41;98846.38;4858586;29;20064;-70
2022/10/16 07:52:58;;;;;;;32.00;15.18;;;;;;;34.28;32.56;98841.44;4870163;29;19927;-71
2022/10/16 07:55:47;;;;;;;41.08;15.40;;;;;;;34.14;32.24;98834.41;4857560;29;20049;-72
2022/10/16 07:58:30;;;;;;;34.53;15.23;;;;;;;34.13;33.57;98827.25;4860645;29;20061;-71
2022/10/16 08:01:21;;;;;;;28.38;15.90;;;;;;;33.86;33.95;98828.28;4872549;29;20065;-72
2022/10/16 08:04:03;;;;;;;37.80;17.63;;;;;;;33.57;31.95;98822.09;4853544;29;20040;-71
2022/10/16 08:06:54;;;;;;;41.80;16.48;;;;;;;33.86;31.50;98822.72;4868246;29;20052;-72
2022/10/16 08:09:43;;;;;;;36.67;14.07;;;;;;;34.18;33.49;98822.56;4857773;29;20136;-72
2022/10/16 08:12:25;;;;;;;27.00;13.90;;;;;;;33.99;30.30;98821.38;4861459;29;20088;-72
2022/10/16 08:15:14;;;;;;;32.50;12.48;;;;;;;33.97;30.81;98820.94;4844578;29;20065;-70
2022/10/16 08:22:22;;;;;;;30.15;10.45;;;;;;;34.12;30.43;98820.03;4860308;29;20121;-69
2022/10/16 08:25:34;;;;;;;28.67;10.73;;;;;;;33.80;29.24;98813.06;4834094;29;20493;-69
2022/10/16 08:28:18;;;;;;;27.33;10.63;;;;;;;33.14;28.81;98799.72;4837729;29;20046;-71
2022/10/16 08:31:12;;;;;;;20.20;10.70;;;;;;;33.70;30.85;98798.56;4832587;29;20747;-70
2022/10/16 08:33:54;;;;;;;30.25;11.32;;;;;;;33.89;31.00;98792.16;4829576;29;20042;-68
2022/10/16 08:36:43;;;;;;;32.67;11.18;;;;;;;33.96;28.85;98788.72;4848491;29;20423;-67
2022/10/16 08:39:25;;;;;;;26.02;11.05;;;;;;;34.07;31.10;98786.13;4833535;29;20062;-66
2022/10/16 08:42:49;;;;;;;23.77;10.65;;;;;;;34.11;29.89;98785.03;4840310;29;20073;-72
2022/10/16 08:45:50;;;;;;;26.73;10.75;;;;;;;34.02;29.91;98778.09;4818629;29;20042;-74
2022/10/16 08:48:54;;;;;;;22.10;9.73;;;;;;;34.10;30.88;98777.84;4837521;29;20049;-73
2022/10/16 08:51:43;;;;;;;;;;;;;;;34.09;29.31;98779.03;4845223;29;20073;-73
2022/10/16 08:54:40;;;;;;;26.67;10.13;;;;;;;34.07;30.56;98766.63;4837023;29;19928;-75
2022/10/16 08:57:28;;;;;;;22.80;9.63;;;;;;;34.04;30.11;98768.19;4837236;29;20049;-75
2022/10/16 09:00:24;;;;;;;19.90;9.77;;;;;;;34.07;31.73;98769.41;4845103;29;20049;-74
2022/10/16 09:03:04;;;;;;;22.75;9.88;;;;;;;33.98;30.85;98768.88;4844422;29;20053;-75
2022/10/16 09:06:08;;;;;;;21.58;9.55;;;;;;;34.02;31.11;98764.97;4837061;29;20473;-75
2022/10/16 09:09:40;;;;;;;23.73;10.27;;;;;;;33.82;30.31;98767.00;4827581;29;20049;-75
2022/10/16 09:12:39;;;;;;;18.58;10.80;;;;;;;33.68;29.90;98766.72;4845006;29;20060;-74
2022/10/16 09:15:35;;;;;;;26.92;10.50;;;;;;;33.74;32.94;98765.22;4849839;29;20081;-72
2022/10/16 09:18:43;;;;;;;22.67;10.55;;;;;;;33.91;30.40;98761.19;4849444;29;20049;-71
2022/10/16 09:21:38;;;;;;;21.08;10.90;;;;;;;33.94;30.74;98763.25;4850278;29;20072;-71
2022/10/16 09:24:26;;;;;;;20.55;10.00;;;;;;;33.68;31.89;98758.34;4843284;29;20152;-70
2022/10/16 09:27:22;;;;;;;31.45;11.23;;;;;;;33.65;32.65;98757.13;4846621;29;20046;-73
2022/10/16 09:30:16;;;;;;;22.98;11.98;;;;;;;33.58;31.27;98750.59;4847881;29;20110;-73
2022/10/16 09:33:07;;;;;;;27.17;11.88;;;;;;;33.62;32.01;98749.47;4853897;29;20077;-69
2022/10/16 09:35:53;;;;;;;;;;;;;;;33.51;33.22;98756.78;4854143;29;20069;-67
2022/10/16 09:38:44;;;;;;;24.27;13.45;;;;;;;33.36;33.25;98741.78;4852484;29;19927;-69
2022/10/16 09:41:27;;;;;;;37.55;14.63;;;;;;;33.67;33.62;98754.78;4852238;29;20061;-70
2022/10/16 09:44:36;;;;;;;29.15;13.65;;;;;;;33.64;33.48;98755.50;4853221;29;20065;-68
2022/10/16 09:47:23;;;;;;;26.58;13.43;;;;;;;33.46;34.44;98746.78;4836367;29;20113;-68
2022/10/16 09:50:29;;;;;;;25.25;13.35;;;;;;;33.71;34.13;98749.28;4852769;29;20057;-68
2022/10/16 09:53:18;;;;;;;26.00;13.65;;;;;;;33.60;33.23;98754.59;4853083;29;20049;-68
2022/10/16 09:56:07;;;;;;;28.00;13.35;;;;;;;33.62;33.31;98743.91;4851235;29;20693;-69
2022/10/16 09:59:02;;;;;;;26.02;14.05;;;;;;;33.46;33.10;98748.72;4852575;29;20049;-68
2022/10/16 10:02:03;;;;;;;25.50;12.38;;;;;;;33.57;32.73;98746.97;4853081;29;20113;-68
2022/10/16 10:04:56;;;;;;;28.42;13.00;;;;;;;33.18;34.20;98744.19;4857715;29;20049;-68
2022/10/16 10:07:50;;;;;;;33.65;14.77;;;;;;;33.05;34.17;98745.47;4854898;29;20118;-68
2022/10/16 10:10:49;;;;;;;34.47;15.10;;;;;;;33.00;33.91;98749.34;4856762;29;20086;-68
2022/10/16 10:13:26;;;;;;;34.47;15.47;;;;;;;33.13;33.61;98748.09;4856490;29;20069;-68
2022/10/16 10:16:24;;;;;;;36.70;18.13;;;;;;;33.21;34.49;98737.91;4857023;29;20061;-69
2022/10/16 10:19:08;;;;;;;38.85;16.45;;;;;;;33.15;33.96;98744.91;4856602;29;20073;-68
2022/10/16 10:22:03;;;;;;;29.88;13.90;;;;;;;32.98;35.05;98751.69;4855908;29;20073;-69
2022/10/16 10:24:59;;;;;;;33.08;14.38;;;;;;;33.14;35.01;98749.69;4856482;29;20060;-71
2022/10/16 10:28:07;;;;;;;24.65;13.55;;;;;;;33.05;34.46;98745.47;4853309;29;20105;-69
2022/10/16 10:31:08;;;;;;;23.75;13.65;;;;;;;32.96;34.44;98746.50;4839079;29;20053;-70
2022/10/16 10:34:15;;;;;;;34.47;14.00;;;;;;;32.84;35.51;98752.16;4826947;29;20045;-68
2022/10/16 10:37:25;;;;;;;23.70;14.65;;;;;;;32.90;36.46;98744.34;4856823;29;20041;-68
2022/10/16 10:40:35;;;;;;;28.98;13.45;;;;;;;32.92;36.42;98750.34;4814469;29;20058;-67
2022/10/16 10:43:32;;;;;;;28.30;13.32;;;;;;;32.87;36.54;98745.88;4840352;29;20061;-70
2022/10/16 10:47:01;;;;;;;30.38;14.30;;;;;;;32.78;35.97;98748.84;4818547;29;20489;-68
2022/10/16 10:50:11;;;;;;;26.45;12.82;;;;;;;32.76;37.31;98753.16;4842200;29;20118;-68
2022/10/16 10:53:05;;;;;;;27.98;12.60;;;;;;;32.56;37.20;98747.56;4853713;29;20045;-68
2022/10/16 10:56:32;;;;;;;29.80;12.38;;;;;;;32.60;35.34;98752.38;4838176;29;20053;-68
2022/10/16 10:59:40;;;;;;;28.70;12.23;;;;;;;32.53;37.29;98753.78;4837236;29;20137;-67
2022/10/16 11:02:46;;;;;;;25.67;12.25;;;;;;;32.43;35.63;98748.78;4821851;29;20050;-68
2022/10/16 11:05:52;;;;;;;27.90;11.55;;;;;;;32.39;34.29;98754.25;4808226;29;20046;-67
2022/10/16 11:08:50;;;;;;;27.55;11.75;;;;;;;32.42;36.48;98761.03;4808316;29;20056;-69
2022/10/16 11:12:10;;;;;;;25.42;12.20;;;;;;;32.23;35.82;98756.22;4821133;29;20053;-68
2022/10/16 11:15:38;;;;;;;23.95;10.95;;;;;;;32.21;35.74;98752.19;4828847;29;20137;-68
2022/10/16 11:18:53;;;;;;;24.40;11.05;;;;;;;32.25;36.14;98761.41;4839523;29;20109;-69
2022/10/16 11:21:44;;;;;;;23.85;10.93;;;;;;;32.09;37.38;98756.66;4865305;29;20141;-69
2022/10/16 11:25:00;;;;;;;21.52;11.38;;;;;;;31.93;37.94;98761.34;4840102;29;20132;-69
2022/10/16 11:28:06;;;;;;;26.52;12.18;;;;;;;31.89;37.02;98768.75;4841897;29;20922;-68
2022/10/16 11:30:50;;;;;;;24.50;12.20;;;;;;;31.95;37.20;98764.59;4837486;29;20144;-69
2022/10/16 11:33:53;;;;;;;17.98;12.20;;;;;;;31.76;38.92;98760.50;4837377;29;20130;-68
2022/10/16 11:36:40;;;;;;;22.15;12.63;;;;;;;31.66;37.47;98760.22;4839269;29;20049;-69
2022/10/16 11:39:30;;;;;;;26.48;13.20;;;;;;;31.73;37.69;98769.53;4854823;29;20782;-70
2022/10/16 11:42:46;;;;;;;31.63;15.40;;;;;;;31.65;36.62;98764.97;4844500;29;20140;-70
2022/10/16 11:45:46;;;;;;;28.35;14.13;;;;;;;31.60;38.87;98776.28;4842047;29;20046;-71
2022/10/16 11:49:20;;;;;;;32.38;13.65;;;;;;;31.61;37.31;98775.16;4854860;29;20122;-70
2022/10/16 11:52:14;;;;;;;25.83;14.68;;;;;;;31.51;37.02;98782.00;4798369;29;20849;-70
2022/10/16 11:55:23;;;;;;;28.13;14.35;;;;;;;31.53;38.35;98784.44;4799447;29;20219;-71
2022/10/16 11:58:34;;;;;;;30.73;14.88;;;;;;;31.35;38.47;98786.63;4850703;29;20118;-71
2022/10/16 12:01:51;;;;;;;30.67;15.70;;;;;;;31.29;38.80;98791.63;4835579;29;20479;-70
2022/10/16 12:05:22;;;;;;;41.22;15.55;;;;;;;31.11;41.27;98787.50;4835419;29;20049;-69
2022/10/16 12:08:16;;;;;;;30.52;15.40;;;;;;;31.01;41.43;98780.47;4833552;29;20950;-69
2022/10/16 12:11:38;;;;;;;34.30;15.10;;;;;;;30.76;42.26;98791.53;4834531;29;20140;-69
2022/10/16 12:14:13;;;;;;;39.97;15.75;;;;;;;30.67;43.00;98787.28;4833490;29;20085;-69
2022/10/16 12:17:27;;;;;;;39.67;16.30;;;;;;;30.50;44.26;98780.00;4858562;29;20055;-69
2022/10/16 12:20:19;;;;;;;35.92;15.15;;;;;;;30.39;45.73;98788.75;4871622;29;20045;-69
2022/10/16 12:23:27;;;;;;;39.45;16.95;;;;;;;30.21;45.92;98790.91;4871244;29;20080;-69
2022/10/16 12:26:03;;;;;;;49.95;19.27;;;;;;;30.09;47.42;98792.81;4839037;29;20065;-70
2022/10/16 12:28:54;;;;;;;43.80;23.15;;;;;;;30.00;46.82;98792.91;4833166;29;20061;-69
2022/10/16 12:31:49;;;;;;;53.17;26.10;;;;;;;29.90;46.79;98794.16;4852550;29;20045;-69
2022/10/16 12:34:45;;;;;;;70.07;26.70;;;;;;;29.86;47.88;98798.75;4854052;29;20056;-70
2022/10/16 12:37:41;;;;;;;67.28;28.80;;;;;;;29.72;49.22;98793.47;4854518;29;20144;-70
2022/10/16 12:40:40;;;;;;;69.53;30.35;;;;;;;29.68;49.06;98789.78;4854007;29;20073;-70
2022/10/16 12:43:28;;;;;;;68.20;30.83;;;;;;;29.58;49.71;98792.94;4836558;29;20057;-71
2022/10/16 12:46:23;;;;;;;77.90;32.15;;;;;;;29.47;49.22;98798.91;4853556;29;20049;-72
2022/10/16 12:49:21;;;;;;;87.13;36.17;;;;;;;29.40;49.88;98798.63;5284784;24;20062;-76
2022/10/16 12:52:44;;;;;;;86.70;36.80;;;;;;;29.36;50.51;98796.88;4486728;29;10000553;-70
2022/10/16 12:55:22;;;;;;;78.53;38.03;;;;;;;29.22;49.93;98808.22;4828602;29;20377;-69
2022/10/16 12:58:38;;;;;;;78.55;38.95;;;;;;;29.13;49.58;98802.72;4838243;29;20057;-69
2022/10/16 13:01:19;;;;;;;75.70;32.72;;;;;;;29.08;50.80;98812.00;4503999;29;10000425;-67
2022/10/16 13:04:40;;;;;;;65.05;32.90;;;;;;;29.06;50.57;98805.19;4824637;29;20140;-70
2022/10/16 13:07:54;;;;;;;69.57;30.92;;;;;;;29.00;49.75;98803.75;4832778;29;20050;-69
2022/10/16 13:10:55;;;;;;;70.70;29.50;;;;;;;28.94;50.75;98810.63;4833034;29;20661;-67
2022/10/16 13:13:47;;;;;;;55.70;26.50;;;;;;;28.82;51.02;98814.91;4812924;29;20050;-68
2022/10/16 13:17:13;;;;;;;53.80;26.45;;;;;;;28.77;50.16;98822.56;4813151;29;20409;-71